createdAt,value
2017-04-20T00:00:02.518Z,17.99
2017-04-20T00:00:30.833Z,18.02
2017-04-20T00:00:59.168Z,18.03
2017-04-20T00:01:27.504Z,18.03
2017-04-20T00:01:55.645Z,18.08
2017-04-20T00:02:24.005Z,18.03
2017-04-20T00:02:52.248Z,18.02
2017-04-20T00:04:03.629Z,18.08
2017-04-20T00:04:31.717Z,17.96
2017-04-20T00:04:59.775Z,18.02
2017-04-20T00:05:27.968Z,18.03
2017-04-20T00:05:56.282Z,17.94
2017-04-20T00:06:24.426Z,17.91
2017-04-20T00:06:52.765Z,17.99
2017-04-20T00:07:21.004Z,18.03
2017-04-20T00:07:49.234Z,18.01
2017-04-20T00:08:17.584Z,18.03
2017-04-20T00:08:45.731Z,17.97
2017-04-20T00:09:56.945Z,18.05
2017-04-20T00:10:25.386Z,17.96
2017-04-20T00:10:53.728Z,18.01
2017-04-20T00:11:21.962Z,18.05
2017-04-20T00:11:50.230Z,18.02
2017-04-20T00:12:18.498Z,18.01
2017-04-20T00:12:46.768Z,18.01
2017-04-20T00:13:15.055Z,18.03
2017-04-20T00:13:43.266Z,17.99
2017-04-20T00:14:11.532Z,17.96
2017-04-20T00:14:39.872Z,17.96
2017-04-20T00:15:51.254Z,17.96
2017-04-20T00:16:19.538Z,17.96
2017-04-20T00:16:47.880Z,17.9
2017-04-20T00:17:16.082Z,17.9
2017-04-20T00:17:44.233Z,17.91
2017-04-20T00:18:12.471Z,17.88
2017-04-20T00:18:40.808Z,17.91
2017-04-20T00:19:09.142Z,17.91
2017-04-20T00:19:37.183Z,17.9
2017-04-20T00:20:05.296Z,17.94
2017-04-20T00:20:33.395Z,17.93
2017-04-20T00:21:44.623Z,17.94
2017-04-20T00:22:12.578Z,17.88
2017-04-20T00:22:40.587Z,17.97
2017-04-20T00:23:08.790Z,17.94
2017-04-20T00:23:37.098Z,17.84
2017-04-20T00:24:05.420Z,17.93
2017-04-20T00:24:33.758Z,17.97
2017-04-20T00:25:02.096Z,17.99
2017-04-20T00:25:30.424Z,17.96
2017-04-20T00:25:58.778Z,17.99
2017-04-20T00:26:27.018Z,17.99
2017-04-20T00:27:38.403Z,18.06
2017-04-20T00:28:06.685Z,18.01
2017-04-20T00:28:34.936Z,18.01
2017-04-20T00:29:03.127Z,17.97
2017-04-20T00:29:31.445Z,17.99
2017-04-20T00:29:59.681Z,18.01
2017-04-20T00:30:28.014Z,17.93
2017-04-20T00:30:56.159Z,17.99
2017-04-20T00:31:24.487Z,18.05
2017-04-20T00:31:52.651Z,18.03
2017-04-20T00:32:20.796Z,17.99
2017-04-20T00:33:32.087Z,17.9
2017-04-20T00:34:00.321Z,17.94
2017-04-20T00:34:28.659Z,17.96
2017-04-20T00:34:56.942Z,18.01
2017-04-20T00:35:25.265Z,17.94
2017-04-20T00:35:53.483Z,17.94
2017-04-20T00:36:21.825Z,17.93
2017-04-20T00:36:49.974Z,17.96
2017-04-20T00:37:18.443Z,17.93
2017-04-20T00:37:46.792Z,17.94
2017-04-20T00:38:15.034Z,17.97
2017-04-20T00:39:26.232Z,17.99
2017-04-20T00:39:54.519Z,17.93
2017-04-20T00:40:22.866Z,17.99
2017-04-20T00:40:50.958Z,18.01
2017-04-20T00:41:19.094Z,17.99
2017-04-20T00:41:47.413Z,17.96
2017-04-20T00:42:15.754Z,17.91
2017-04-20T00:42:44.080Z,17.93
2017-04-20T00:43:12.409Z,17.96
2017-04-20T00:43:40.583Z,17.91
2017-04-20T00:44:08.925Z,17.99
2017-04-20T00:45:20.313Z,17.88
2017-04-20T00:45:48.598Z,17.96
2017-04-20T00:46:16.949Z,17.94
2017-04-20T00:46:45.241Z,17.88
2017-04-20T00:47:13.366Z,17.87
2017-04-20T00:47:41.691Z,17.9
2017-04-20T00:48:10.035Z,17.9
2017-04-20T00:48:38.368Z,17.87
2017-04-20T00:49:06.628Z,17.9
2017-04-20T00:49:34.964Z,17.83
2017-04-20T00:50:03.210Z,17.88
2017-04-20T00:51:14.602Z,17.88
2017-04-20T00:51:42.887Z,17.83
2017-04-20T00:52:11.143Z,17.83
2017-04-20T00:52:39.239Z,17.88
2017-04-20T00:53:07.551Z,17.87
2017-04-20T00:53:35.782Z,17.86
2017-04-20T00:54:04.119Z,17.73
2017-04-20T00:54:32.363Z,17.86
2017-04-20T00:55:00.608Z,17.87
2017-04-20T00:55:28.949Z,17.87
2017-04-20T00:55:57.325Z,17.83
2017-04-20T00:57:08.605Z,17.88
2017-04-20T00:57:36.826Z,17.78
2017-04-20T00:58:04.987Z,17.73
2017-04-20T00:58:33.274Z,17.81
2017-04-20T00:59:01.610Z,17.9
2017-04-20T00:59:29.932Z,17.9
2017-04-20T00:59:58.364Z,17.9
2017-04-20T01:00:26.703Z,17.81
2017-04-20T01:00:54.934Z,17.86
2017-04-20T01:01:23.205Z,17.88
2017-04-20T01:01:51.445Z,17.86
2017-04-20T01:03:02.832Z,17.9
2017-04-20T01:03:31.029Z,17.76
2017-04-20T01:03:59.281Z,17.87
2017-04-20T01:04:27.475Z,17.81
2017-04-20T01:04:55.797Z,17.87
2017-04-20T01:05:24.115Z,17.79
2017-04-20T01:05:52.455Z,17.71
2017-04-20T01:06:20.787Z,17.84
2017-04-20T01:06:49.022Z,17.83
2017-04-20T01:07:17.286Z,17.78
2017-04-20T01:07:45.623Z,17.81
2017-04-20T01:08:56.921Z,17.84
2017-04-20T01:09:25.207Z,17.79
2017-04-20T01:09:53.556Z,17.81
2017-04-20T01:10:21.840Z,17.87
2017-04-20T01:10:50.070Z,17.81
2017-04-20T01:11:18.395Z,17.81
2017-04-20T01:11:46.736Z,17.87
2017-04-20T01:12:15.082Z,17.83
2017-04-20T01:12:43.201Z,17.76
2017-04-20T01:13:11.462Z,17.83
2017-04-20T01:13:39.607Z,17.81
2017-04-20T01:14:50.807Z,17.83
2017-04-20T01:15:18.991Z,17.81
2017-04-20T01:15:47.338Z,17.81
2017-04-20T01:16:15.528Z,17.83
2017-04-20T01:16:43.749Z,17.75
2017-04-20T01:17:11.980Z,17.86
2017-04-20T01:17:40.322Z,17.75
2017-04-20T01:18:08.656Z,17.81
2017-04-20T01:18:36.891Z,17.81
2017-04-20T01:19:05.362Z,17.86
2017-04-20T01:19:33.623Z,17.78
2017-04-20T01:20:44.886Z,17.81
2017-04-20T01:21:13.027Z,17.88
2017-04-20T01:21:41.395Z,17.84
2017-04-20T01:22:09.548Z,17.81
2017-04-20T01:22:37.850Z,17.79
2017-04-20T01:23:06.164Z,17.78
2017-04-20T01:23:34.405Z,17.84
2017-04-20T01:24:02.778Z,17.81
2017-04-20T01:24:30.871Z,17.86
2017-04-20T01:24:59.179Z,17.81
2017-04-20T01:25:27.286Z,17.84
2017-04-20T01:26:38.521Z,17.81
2017-04-20T01:27:06.695Z,17.81
2017-04-20T01:27:34.953Z,17.84
2017-04-20T01:28:03.242Z,17.83
2017-04-20T01:28:31.474Z,17.84
2017-04-20T01:28:59.715Z,17.84
2017-04-20T01:29:28.096Z,17.78
2017-04-20T01:29:56.340Z,17.79
2017-04-20T01:30:24.648Z,17.84
2017-04-20T01:30:52.946Z,17.76
2017-04-20T01:31:21.279Z,17.78
2017-04-20T01:32:32.683Z,17.79
2017-04-20T01:33:00.948Z,17.72
2017-04-20T01:33:29.180Z,17.75
2017-04-20T01:33:58.155Z,17.72
2017-04-20T01:34:26.463Z,17.71
2017-04-20T01:34:54.794Z,17.72
2017-04-20T01:35:23.060Z,17.75
2017-04-20T01:35:51.402Z,17.73
2017-04-20T01:36:19.639Z,17.63
2017-04-20T01:36:47.816Z,17.69
2017-04-20T01:37:16.154Z,17.65
2017-04-20T01:38:27.407Z,17.68
2017-04-20T01:38:55.541Z,17.65
2017-04-20T01:39:24.209Z,17.59
2017-04-20T01:39:52.466Z,17.69
2017-04-20T01:40:20.680Z,17.71
2017-04-20T01:40:48.896Z,17.56
2017-04-20T01:41:17.196Z,17.56
2017-04-20T01:41:45.483Z,17.65
2017-04-20T01:42:13.765Z,17.66
2017-04-20T01:42:41.908Z,17.62
2017-04-20T01:43:10.160Z,17.63
2017-04-20T01:44:21.409Z,17.68
2017-04-20T01:44:49.375Z,17.66
2017-04-20T01:45:17.681Z,17.73
2017-04-20T01:45:45.945Z,17.71
2017-04-20T01:46:14.135Z,17.62
2017-04-20T01:46:42.355Z,17.65
2017-04-20T01:47:10.631Z,17.68
2017-04-20T01:47:38.844Z,17.62
2017-04-20T01:48:07.176Z,17.66
2017-04-20T01:48:35.537Z,17.59
2017-04-20T01:49:03.791Z,17.63
2017-04-20T01:50:14.861Z,17.59
2017-04-20T01:50:43.004Z,17.57
2017-04-20T01:51:11.197Z,17.63
2017-04-20T01:51:39.391Z,17.63
2017-04-20T01:52:07.732Z,17.65
2017-04-20T01:52:36.101Z,17.62
2017-04-20T01:53:04.297Z,17.65
2017-04-20T01:53:32.686Z,17.62
2017-04-20T01:54:01.016Z,17.65
2017-04-20T01:54:29.146Z,17.56
2017-04-20T01:54:57.227Z,17.71
2017-04-20T01:56:08.515Z,17.57
2017-04-20T01:56:36.612Z,17.72
2017-04-20T01:57:05.083Z,17.71
2017-04-20T01:57:33.281Z,17.71
2017-04-20T01:58:01.436Z,17.69
2017-04-20T01:58:29.663Z,17.65
2017-04-20T01:58:58.044Z,17.62
2017-04-20T01:59:26.342Z,17.63
2017-04-20T01:59:54.536Z,17.62
2017-04-20T02:00:22.764Z,17.68
2017-04-20T02:00:50.967Z,17.68
2017-04-20T02:02:02.307Z,17.63
2017-04-20T02:02:30.579Z,17.59
2017-04-20T02:02:58.840Z,17.66
2017-04-20T02:03:27.015Z,17.66
2017-04-20T02:03:55.171Z,17.62
2017-04-20T02:04:23.397Z,17.66
2017-04-20T02:04:51.751Z,17.66
2017-04-20T02:05:20.008Z,17.65
2017-04-20T02:05:48.247Z,17.69
2017-04-20T02:06:16.608Z,17.68
2017-04-20T02:06:44.957Z,17.65
2017-04-20T02:07:56.292Z,17.73
2017-04-20T02:08:24.431Z,17.68
2017-04-20T02:08:52.676Z,17.69
2017-04-20T02:09:20.844Z,17.69
2017-04-20T02:09:48.995Z,17.75
2017-04-20T02:10:17.280Z,17.72
2017-04-20T02:10:45.712Z,17.69
2017-04-20T02:11:14.054Z,17.72
2017-04-20T02:11:42.415Z,17.69
2017-04-20T02:12:10.763Z,17.68
2017-04-20T02:12:38.935Z,17.71
2017-04-20T02:13:50.334Z,17.68
2017-04-20T02:14:18.524Z,17.68
2017-04-20T02:14:46.862Z,17.66
2017-04-20T02:15:15.051Z,17.75
2017-04-20T02:15:43.280Z,17.66
2017-04-20T02:16:11.634Z,17.66
2017-04-20T02:16:39.760Z,17.68
2017-04-20T02:17:08.007Z,17.69
2017-04-20T02:17:36.240Z,17.68
2017-04-20T02:18:04.416Z,17.66
2017-04-20T02:18:32.755Z,17.68
2017-04-20T02:19:44.160Z,17.69
2017-04-20T02:20:12.440Z,17.69
2017-04-20T02:20:40.613Z,17.72
2017-04-20T02:21:08.707Z,17.68
2017-04-20T02:21:36.937Z,17.71
2017-04-20T02:22:05.169Z,17.71
2017-04-20T02:22:33.513Z,17.72
2017-04-20T02:23:01.776Z,17.71
2017-04-20T02:23:30.034Z,17.72
2017-04-20T02:23:58.273Z,17.68
2017-04-20T02:24:26.528Z,17.76
2017-04-20T02:25:37.738Z,17.71
2017-04-20T02:26:06.042Z,17.69
2017-04-20T02:26:34.393Z,17.66
2017-04-20T02:27:02.680Z,17.81
2017-04-20T02:27:31.008Z,17.72
2017-04-20T02:27:59.332Z,17.73
2017-04-20T02:28:27.674Z,17.66
2017-04-20T02:28:55.865Z,17.69
2017-04-20T02:29:24.193Z,17.71
2017-04-20T02:29:52.454Z,17.72
2017-04-20T02:30:20.613Z,17.68
2017-04-20T02:31:31.810Z,17.69
2017-04-20T02:32:00.145Z,17.69
2017-04-20T02:32:28.493Z,17.66
2017-04-20T02:32:56.770Z,17.68
2017-04-20T02:33:24.992Z,17.73
2017-04-20T02:33:53.324Z,17.73
2017-04-20T02:34:21.573Z,17.65
2017-04-20T02:34:49.912Z,17.84
2017-04-20T02:35:17.962Z,17.65
2017-04-20T02:35:46.134Z,17.72
2017-04-20T02:36:14.471Z,17.79
2017-04-20T02:37:25.672Z,17.79
2017-04-20T02:37:53.857Z,17.73
2017-04-20T02:38:22.203Z,17.84
2017-04-20T02:38:50.489Z,17.79
2017-04-20T02:39:18.715Z,17.81
2017-04-20T02:39:46.944Z,17.81
2017-04-20T02:40:15.186Z,17.83
2017-04-20T02:40:43.426Z,17.84
2017-04-20T02:41:11.663Z,17.83
2017-04-20T02:41:40.022Z,17.88
2017-04-20T02:42:08.362Z,17.78
2017-04-20T02:43:19.678Z,17.86
2017-04-20T02:43:47.946Z,17.84
2017-04-20T02:44:16.301Z,17.88
2017-04-20T02:44:44.635Z,17.84
2017-04-20T02:45:12.854Z,17.84
2017-04-20T02:45:41.084Z,17.86
2017-04-20T02:46:09.333Z,17.91
2017-04-20T02:46:37.575Z,17.87
2017-04-20T02:47:05.711Z,17.81
2017-04-20T02:47:34.065Z,17.86
2017-04-20T02:48:02.400Z,17.86
2017-04-20T02:49:13.601Z,17.87
2017-04-20T02:49:41.814Z,17.9
2017-04-20T02:50:10.076Z,17.81
2017-04-20T02:50:38.271Z,17.84
2017-04-20T02:51:06.591Z,17.91
2017-04-20T02:51:34.910Z,17.94
2017-04-20T02:52:03.263Z,17.9
2017-04-20T02:52:31.492Z,17.93
2017-04-20T02:52:59.828Z,17.91
2017-04-20T02:53:27.976Z,17.93
2017-04-20T02:53:56.220Z,17.79
2017-04-20T02:55:07.510Z,17.91
2017-04-20T02:55:35.709Z,17.93
2017-04-20T02:56:03.958Z,17.94
2017-04-20T02:56:32.158Z,17.93
2017-04-20T02:57:00.378Z,17.94
2017-04-20T02:57:28.603Z,17.91
2017-04-20T02:57:56.937Z,17.96
2017-04-20T02:58:25.316Z,17.96
2017-04-20T02:58:53.536Z,17.93
2017-04-20T02:59:21.798Z,17.93
2017-04-20T02:59:50.132Z,17.97
2017-04-20T03:01:01.511Z,17.94
2017-04-20T03:01:29.596Z,17.99
2017-04-20T03:01:57.749Z,17.99
2017-04-20T03:02:26.039Z,17.96
2017-04-20T03:02:54.262Z,17.93
2017-04-20T03:03:22.488Z,18.01
2017-04-20T03:03:50.821Z,17.99
2017-04-20T03:04:19.153Z,17.96
2017-04-20T03:04:47.388Z,17.96
2017-04-20T03:05:15.648Z,17.91
2017-04-20T03:05:43.790Z,17.91
2017-04-20T03:06:55.084Z,17.93
2017-04-20T03:07:23.272Z,17.96
2017-04-20T03:07:51.522Z,17.93
2017-04-20T03:08:19.803Z,18.01
2017-04-20T03:08:48.120Z,17.99
2017-04-20T03:09:16.350Z,17.93
2017-04-20T03:09:44.688Z,17.91
2017-04-20T03:10:13.021Z,17.94
2017-04-20T03:10:41.258Z,17.94
2017-04-20T03:11:09.514Z,17.96
2017-04-20T03:11:37.468Z,17.94
2017-04-20T03:13:31.778Z,17.9
2017-04-20T03:14:00.239Z,17.97
2017-04-20T03:14:28.862Z,17.94
2017-04-20T03:14:57.246Z,18.06
2017-04-20T03:15:25.684Z,17.97
2017-04-20T03:15:54.014Z,17.99
2017-04-20T03:16:22.191Z,17.99
2017-04-20T03:16:50.543Z,17.94
2017-04-20T03:17:18.784Z,17.96
2017-04-20T03:17:47.533Z,17.96
2017-04-20T03:18:15.805Z,17.97
2017-04-20T03:19:27.294Z,17.91
2017-04-20T03:19:55.718Z,17.88
2017-04-20T03:20:24.167Z,17.83
2017-04-20T03:20:52.562Z,17.93
2017-04-20T03:21:20.920Z,17.91
2017-04-20T03:21:49.353Z,17.94
2017-04-20T03:22:17.540Z,17.88
2017-04-20T03:22:46.600Z,17.91
2017-04-20T03:23:14.985Z,17.88
2017-04-20T03:23:43.278Z,17.93
2017-04-20T03:24:11.584Z,17.9
2017-04-20T03:25:22.918Z,17.93
2017-04-20T03:25:51.144Z,17.87
2017-04-20T03:26:19.528Z,17.9
2017-04-20T03:26:47.863Z,17.88
2017-04-20T03:27:16.252Z,17.97
2017-04-20T03:27:44.614Z,17.9
2017-04-20T03:28:12.800Z,17.94
2017-04-20T03:28:41.066Z,17.93
2017-04-20T03:29:09.353Z,17.88
2017-04-20T03:29:37.732Z,17.93
2017-04-20T03:30:05.855Z,17.9
2017-04-20T03:31:17.282Z,17.97
2017-04-20T03:31:45.536Z,17.93
2017-04-20T03:32:13.759Z,17.9
2017-04-20T03:32:41.997Z,17.9
2017-04-20T03:33:10.260Z,17.91
2017-04-20T03:33:38.640Z,17.96
2017-04-20T03:34:06.824Z,17.9
2017-04-20T03:34:35.020Z,17.97
2017-04-20T03:35:03.393Z,17.94
2017-04-20T03:35:31.781Z,17.9
2017-04-20T03:36:00.001Z,17.93
2017-04-20T03:37:11.457Z,17.9
2017-04-20T03:37:39.783Z,17.9
2017-04-20T03:38:08.073Z,17.86
2017-04-20T03:38:36.411Z,17.9
2017-04-20T03:39:04.854Z,17.91
2017-04-20T03:39:33.132Z,17.88
2017-04-20T03:40:01.499Z,17.86
2017-04-20T03:40:29.692Z,17.9
2017-04-20T03:40:57.948Z,17.9
2017-04-20T03:41:26.245Z,17.91
2017-04-20T03:41:54.539Z,17.97
2017-04-20T03:43:05.768Z,17.87
2017-04-20T03:43:33.960Z,17.94
2017-04-20T03:44:02.345Z,17.94
2017-04-20T03:44:30.589Z,17.9
2017-04-20T03:44:58.861Z,17.9
2017-04-20T03:45:27.135Z,17.91
2017-04-20T03:45:55.336Z,17.94
2017-04-20T03:46:23.719Z,17.93
2017-04-20T03:46:52.045Z,17.91
2017-04-20T03:47:20.446Z,17.99
2017-04-20T03:47:48.734Z,17.93
2017-04-20T03:49:00.097Z,17.97
2017-04-20T03:49:28.318Z,17.91
2017-04-20T03:49:56.609Z,17.96
2017-04-20T03:50:24.843Z,17.88
2017-04-20T03:50:53.210Z,18.01
2017-04-20T03:51:21.478Z,18.01
2017-04-20T03:51:49.858Z,17.93
2017-04-20T03:52:18.236Z,17.91
2017-04-20T03:52:46.610Z,18.02
2017-04-20T03:53:14.917Z,17.97
2017-04-20T03:53:43.206Z,17.99
2017-04-20T03:54:54.638Z,18.06
2017-04-20T03:55:22.971Z,18.03
2017-04-20T03:55:51.166Z,17.99
2017-04-20T03:56:19.217Z,18.02
2017-04-20T03:56:47.574Z,18.02
2017-04-20T03:57:15.742Z,18.03
2017-04-20T03:57:44.123Z,18.05
2017-04-20T03:58:12.324Z,18.02
2017-04-20T03:58:40.607Z,18.01
2017-04-20T03:59:08.916Z,18.03
2017-04-20T03:59:37.160Z,18.06
2017-04-20T04:00:48.495Z,18.02
2017-04-20T04:01:16.735Z,18.01
2017-04-20T04:01:44.932Z,18.05
2017-04-20T04:02:13.255Z,18.02
2017-04-20T04:02:41.532Z,18.08
2017-04-20T04:03:09.721Z,17.99
2017-04-20T04:03:37.907Z,18.05
2017-04-20T04:04:06.093Z,18.08
2017-04-20T04:04:34.476Z,18.03
2017-04-20T04:05:02.888Z,18.12
2017-04-20T04:05:31.177Z,18.02
2017-04-20T04:06:42.638Z,18.03
2017-04-20T04:07:10.895Z,18.01
2017-04-20T04:07:39.291Z,18.05
2017-04-20T04:08:07.631Z,18.02
2017-04-20T04:08:35.993Z,18.03
2017-04-20T04:09:04.364Z,18.06
2017-04-20T04:09:32.455Z,17.96
2017-04-20T04:10:00.741Z,18.06
2017-04-20T04:10:29.114Z,18.02
2017-04-20T04:10:57.431Z,18.03
2017-04-20T04:11:25.603Z,18.06
2017-04-20T04:12:37.066Z,18.03
2017-04-20T04:13:05.399Z,18.06
2017-04-20T04:13:33.688Z,18.02
2017-04-20T04:14:01.873Z,18.03
2017-04-20T04:14:30.157Z,18.08
2017-04-20T04:14:58.508Z,18.06
2017-04-20T04:15:26.701Z,18.05
2017-04-20T04:15:55.075Z,18.05
2017-04-20T04:16:23.451Z,18.09
2017-04-20T04:16:51.769Z,18.08
2017-04-20T04:17:19.941Z,17.99
2017-04-20T04:18:31.262Z,18.08
2017-04-20T04:18:59.496Z,18.09
2017-04-20T04:19:27.884Z,18.06
2017-04-20T04:19:56.134Z,18.06
2017-04-20T04:20:24.496Z,18.01
2017-04-20T04:20:52.708Z,18.05
2017-04-20T04:21:20.901Z,17.97
2017-04-20T04:21:49.000Z,17.96
2017-04-20T04:22:17.289Z,18.05
2017-04-20T04:22:45.516Z,18.11
2017-04-20T04:23:13.691Z,18.06
2017-04-20T04:24:25.106Z,18.03
2017-04-20T04:24:53.344Z,18.05
2017-04-20T04:25:21.734Z,18.02
2017-04-20T04:25:49.964Z,18.06
2017-04-20T04:26:18.280Z,17.99
2017-04-20T04:26:46.550Z,18.08
2017-04-20T04:27:14.737Z,18.05
2017-04-20T04:27:42.926Z,17.99
2017-04-20T04:28:11.313Z,18.05
2017-04-20T04:28:39.631Z,18.09
2017-04-20T04:29:07.803Z,18.02
2017-04-20T04:30:19.124Z,18.09
2017-04-20T04:30:47.452Z,18.02
2017-04-20T04:31:15.842Z,17.99
2017-04-20T04:31:44.170Z,18.08
2017-04-20T04:32:12.442Z,18.08
2017-04-20T04:32:40.710Z,18.03
2017-04-20T04:33:08.990Z,18.08
2017-04-20T04:33:37.183Z,18.08
2017-04-20T04:34:05.564Z,18.12
2017-04-20T04:34:33.973Z,18.01
2017-04-20T04:35:02.146Z,18.03
2017-04-20T04:36:13.469Z,18.02
2017-04-20T04:36:41.698Z,18.02
2017-04-20T04:37:10.089Z,18.03
2017-04-20T04:37:38.415Z,18.01
2017-04-20T04:38:06.780Z,18.06
2017-04-20T04:38:34.954Z,17.97
2017-04-20T04:39:03.329Z,18.06
2017-04-20T04:39:31.615Z,18.05
2017-04-20T04:39:59.999Z,18.03
2017-04-20T04:40:28.416Z,18.02
2017-04-20T04:40:56.590Z,17.97
2017-04-20T04:42:08.003Z,18.03
2017-04-20T04:42:36.335Z,17.99
2017-04-20T04:43:04.632Z,18.02
2017-04-20T04:43:32.962Z,18.03
2017-04-20T04:44:01.325Z,17.96
2017-04-20T04:44:29.610Z,18.03
2017-04-20T04:44:57.799Z,18.03
2017-04-20T04:45:26.179Z,18.06
2017-04-20T04:45:54.465Z,18.01
2017-04-20T04:46:22.796Z,18.03
2017-04-20T04:46:51.054Z,18.02
2017-04-20T04:48:02.473Z,18.02
2017-04-20T04:48:30.611Z,18.02
2017-04-20T04:48:59.000Z,18.05
2017-04-20T04:49:27.235Z,17.96
2017-04-20T04:49:55.497Z,17.97
2017-04-20T04:50:23.767Z,18.03
2017-04-20T04:50:52.053Z,18.08
2017-04-20T04:51:20.348Z,17.97
2017-04-20T04:51:48.639Z,18.03
2017-04-20T04:52:17.031Z,17.94
2017-04-20T04:52:45.393Z,18.08
2017-04-20T04:53:56.826Z,17.94
2017-04-20T04:54:25.156Z,18.03
2017-04-20T04:54:53.451Z,18.02
2017-04-20T04:55:21.675Z,17.97
2017-04-20T04:55:50.043Z,18.01
2017-04-20T04:56:18.308Z,18.03
2017-04-20T04:56:46.484Z,18.05
2017-04-20T04:57:14.582Z,18.02
2017-04-20T04:57:42.873Z,17.99
2017-04-20T04:58:11.280Z,17.96
2017-04-20T04:58:39.549Z,18.01
2017-04-20T04:59:50.872Z,17.97
2017-04-20T05:00:19.109Z,18.02
2017-04-20T05:00:47.405Z,17.96
2017-04-20T05:01:15.540Z,17.99
2017-04-20T05:01:43.813Z,17.97
2017-04-20T05:02:12.171Z,17.99
2017-04-20T05:02:40.449Z,18.01
2017-04-20T05:03:08.737Z,18.01
2017-04-20T05:03:37.032Z,17.99
2017-04-20T05:04:05.338Z,17.99
2017-04-20T05:04:33.605Z,18.03
2017-04-20T05:05:44.836Z,17.91
2017-04-20T05:06:13.144Z,18.05
2017-04-20T05:06:41.437Z,18.01
2017-04-20T05:07:09.658Z,17.99
2017-04-20T05:07:37.842Z,18.03
2017-04-20T05:08:06.206Z,17.97
2017-04-20T05:08:34.575Z,17.94
2017-04-20T05:09:02.767Z,17.96
2017-04-20T05:09:31.058Z,17.88
2017-04-20T05:09:59.462Z,17.97
2017-04-20T05:10:27.633Z,17.91
2017-04-20T05:11:38.953Z,17.91
2017-04-20T05:12:07.186Z,17.93
2017-04-20T05:12:35.386Z,17.93
2017-04-20T05:13:03.604Z,17.94
2017-04-20T05:13:31.883Z,17.9
2017-04-20T05:14:00.265Z,17.96
2017-04-20T05:14:28.627Z,17.91
2017-04-20T05:14:56.816Z,17.93
2017-04-20T05:15:25.110Z,17.93
2017-04-20T05:15:53.509Z,17.93
2017-04-20T05:16:21.873Z,17.9
2017-04-20T05:17:33.294Z,17.88
2017-04-20T05:18:01.618Z,17.86
2017-04-20T05:18:30.005Z,17.83
2017-04-20T05:18:58.324Z,17.88
2017-04-20T05:19:26.694Z,17.79
2017-04-20T05:19:54.965Z,17.81
2017-04-20T05:20:23.154Z,17.81
2017-04-20T05:20:51.443Z,17.83
2017-04-20T05:21:19.821Z,17.87
2017-04-20T05:21:48.223Z,17.84
2017-04-20T05:22:16.490Z,17.78
2017-04-20T05:23:27.909Z,17.87
2017-04-20T05:23:56.141Z,17.78
2017-04-20T05:24:24.670Z,17.73
2017-04-20T05:24:52.992Z,17.83
2017-04-20T05:25:21.287Z,17.75
2017-04-20T05:25:49.644Z,17.78
2017-04-20T05:26:18.016Z,17.81
2017-04-20T05:26:46.294Z,17.79
2017-04-20T05:27:14.486Z,17.81
2017-04-20T05:27:42.887Z,17.71
2017-04-20T05:28:11.245Z,17.72
2017-04-20T05:29:22.661Z,17.75
2017-04-20T05:29:50.992Z,17.79
2017-04-20T05:30:19.131Z,17.76
2017-04-20T05:30:47.352Z,17.86
2017-04-20T05:31:15.627Z,17.71
2017-04-20T05:31:43.992Z,17.73
2017-04-20T05:32:12.363Z,17.81
2017-04-20T05:32:40.652Z,17.73
2017-04-20T05:33:09.033Z,17.71
2017-04-20T05:33:37.436Z,17.72
2017-04-20T05:34:05.701Z,17.71
2017-04-20T05:35:17.112Z,17.66
2017-04-20T05:35:45.443Z,17.71
2017-04-20T05:36:13.731Z,17.71
2017-04-20T05:37:07.737Z,17.69
2017-04-20T05:37:36.148Z,17.72
2017-04-20T05:38:04.665Z,17.72
2017-04-20T05:38:33.055Z,17.72
2017-04-20T05:39:01.439Z,17.73
2017-04-20T05:39:29.647Z,17.75
2017-04-20T05:39:57.937Z,17.66
2017-04-20T05:40:26.227Z,17.68
2017-04-20T05:41:37.514Z,17.72
2017-04-20T05:42:05.890Z,17.75
2017-04-20T05:42:34.186Z,17.69
2017-04-20T05:43:02.307Z,17.63
2017-04-20T05:43:30.628Z,17.59
2017-04-20T05:43:58.922Z,17.62
2017-04-20T05:44:27.280Z,17.66
2017-04-20T05:44:55.663Z,17.65
2017-04-20T05:45:23.855Z,17.66
2017-04-20T05:45:52.358Z,17.69
2017-04-20T05:46:20.735Z,17.62
2017-04-20T05:47:32.022Z,17.66
2017-04-20T05:48:00.402Z,17.66
2017-04-20T05:48:28.754Z,17.68
2017-04-20T05:48:56.935Z,17.65
2017-04-20T05:49:25.160Z,17.71
2017-04-20T05:49:53.381Z,17.66
2017-04-20T05:50:21.720Z,17.68
2017-04-20T05:50:49.961Z,17.72
2017-04-20T05:51:18.293Z,17.69
2017-04-20T05:51:46.558Z,17.66
2017-04-20T05:52:14.781Z,17.73
2017-04-20T05:53:26.044Z,17.68
2017-04-20T05:53:54.324Z,17.71
2017-04-20T05:54:22.669Z,17.62
2017-04-20T05:54:50.852Z,17.71
2017-04-20T05:55:19.175Z,17.69
2017-04-20T05:55:47.486Z,17.63
2017-04-20T05:56:15.814Z,17.71
2017-04-20T05:56:44.058Z,17.62
2017-04-20T05:57:12.396Z,17.68
2017-04-20T05:57:40.754Z,17.57
2017-04-20T05:58:09.067Z,17.59
2017-04-20T05:59:20.440Z,17.54
2017-04-20T05:59:48.625Z,17.65
2017-04-20T06:00:16.868Z,17.68
2017-04-20T06:00:45.054Z,17.52
2017-04-20T06:01:13.387Z,17.5
2017-04-20T06:01:41.707Z,17.59
2017-04-20T06:02:09.947Z,17.53
2017-04-20T06:02:38.096Z,17.54
2017-04-20T06:03:06.332Z,17.65
2017-04-20T06:03:34.696Z,17.56
2017-04-20T06:04:02.919Z,17.53
2017-04-20T06:05:14.201Z,17.57
2017-04-20T06:05:42.296Z,17.49
2017-04-20T06:06:10.541Z,17.52
2017-04-20T06:06:38.826Z,17.54
2017-04-20T06:07:06.953Z,17.49
2017-04-20T06:07:35.084Z,17.54
2017-04-20T06:08:03.230Z,17.54
2017-04-20T06:08:31.283Z,17.53
2017-04-20T06:08:59.613Z,17.52
2017-04-20T06:09:27.936Z,17.54
2017-04-20T06:09:56.151Z,17.54
2017-04-20T06:11:07.521Z,17.43
2017-04-20T06:11:35.804Z,17.47
2017-04-20T06:12:04.147Z,17.46
2017-04-20T06:12:32.433Z,17.52
2017-04-20T06:13:00.746Z,17.53
2017-04-20T06:13:28.967Z,17.52
2017-04-20T06:13:57.116Z,17.37
2017-04-20T06:14:25.450Z,17.34
2017-04-20T06:14:53.692Z,17.53
2017-04-20T06:15:22.086Z,17.41
2017-04-20T06:15:50.404Z,17.34
2017-04-20T06:17:01.772Z,17.38
2017-04-20T06:17:29.962Z,17.38
2017-04-20T06:17:58.292Z,17.39
2017-04-20T06:18:26.571Z,17.37
2017-04-20T06:18:54.700Z,17.39
2017-04-20T06:19:23.017Z,17.38
2017-04-20T06:19:51.341Z,17.43
2017-04-20T06:20:19.673Z,17.38
2017-04-20T06:20:48.028Z,17.38
2017-04-20T06:21:16.296Z,17.39
2017-04-20T06:21:44.648Z,17.32
2017-04-20T06:22:55.961Z,17.39
2017-04-20T06:23:24.235Z,17.43
2017-04-20T06:23:52.472Z,17.41
2017-04-20T06:24:20.670Z,17.39
2017-04-20T06:24:48.923Z,17.43
2017-04-20T06:25:17.174Z,17.43
2017-04-20T06:25:45.518Z,17.41
2017-04-20T06:26:13.764Z,17.39
2017-04-20T06:26:42.115Z,17.43
2017-04-20T06:27:10.446Z,17.43
2017-04-20T06:27:38.671Z,17.37
2017-04-20T06:28:49.969Z,17.43
2017-04-20T06:29:18.246Z,17.39
2017-04-20T06:29:46.579Z,17.35
2017-04-20T06:30:14.672Z,17.38
2017-04-20T06:30:42.810Z,17.41
2017-04-20T06:31:11.059Z,17.45
2017-04-20T06:31:39.116Z,17.32
2017-04-20T06:32:07.470Z,17.43
2017-04-20T06:32:35.603Z,17.41
2017-04-20T06:33:03.844Z,17.39
2017-04-20T06:33:32.189Z,17.39
2017-04-20T06:34:43.406Z,17.38
2017-04-20T06:35:11.403Z,17.34
2017-04-20T06:35:39.624Z,17.41
2017-04-20T06:36:07.907Z,17.39
2017-04-20T06:36:36.235Z,17.38
2017-04-20T06:37:04.581Z,17.43
2017-04-20T06:37:32.919Z,17.3
2017-04-20T06:38:01.260Z,17.3
2017-04-20T06:38:29.570Z,17.34
2017-04-20T06:38:57.910Z,17.35
2017-04-20T06:39:26.140Z,17.35
2017-04-20T06:40:37.266Z,17.34
2017-04-20T06:41:05.551Z,17.34
2017-04-20T06:41:33.871Z,17.35
2017-04-20T06:42:02.154Z,17.3
2017-04-20T06:42:30.310Z,17.37
2017-04-20T06:42:58.564Z,17.28
2017-04-20T06:43:26.892Z,17.32
2017-04-20T06:43:55.061Z,17.31
2017-04-20T06:44:23.287Z,17.35
2017-04-20T06:44:51.660Z,17.28
2017-04-20T06:45:19.786Z,17.35
2017-04-20T06:46:31.174Z,17.35
2017-04-20T06:46:59.373Z,17.25
2017-04-20T06:47:27.595Z,17.3
2017-04-20T06:47:55.692Z,17.24
2017-04-20T06:48:23.948Z,17.3
2017-04-20T06:48:52.297Z,17.22
2017-04-20T06:49:20.348Z,17.27
2017-04-20T06:49:48.696Z,17.25
2017-04-20T06:50:17.021Z,17.3
2017-04-20T06:50:45.354Z,17.25
2017-04-20T06:51:13.576Z,17.31
2017-04-20T06:52:24.871Z,17.16
2017-04-20T06:52:53.168Z,17.2
2017-04-20T06:53:21.390Z,17.28
2017-04-20T06:53:49.669Z,17.3
2017-04-20T06:54:17.920Z,17.22
2017-04-20T06:54:46.269Z,17.19
2017-04-20T06:55:14.606Z,17.2
2017-04-20T06:55:42.773Z,17.2
2017-04-20T06:56:11.089Z,17.22